7TVIL EFHK-ULLI
Flight info
| Callsign | 7TVIL |
|---|---|
| Flight time | 1h 13m |
| Altitude | 7000 |
| Route | ARVEP T82 RATMU DCT OLEMA/K0324F070 L24 AKARU AKARU1V |
| Aircraft | C208/L-SDFGR/C |
Departure
| Time | 2026-04-23 16:49 |
|---|---|
| Airport | Helsinki Vantaa Airport (EFHK) |
Arrival
| Time | 2026-04-23 18:02 |
|---|---|
| Airport | Pulkovo Airport (ULLI) |
| Time | Latitude | Longitude | Altitude | Speed | Heading |
|---|---|---|---|---|---|
| 2026-04-23 16:26 | 60.30642 | 24.93379 | 160 ft | 0 kts | 319° |
| 2026-04-23 16:39 | 60.30642 | 24.93378 | 160 ft | 1 kts | 324° |
| 2026-04-23 16:40 | 60.30644 | 24.93377 | 160 ft | 1 kts | 355° |
| 2026-04-23 16:40 | 60.30681 | 24.93393 | 160 ft | 12 kts | 337° |
| 2026-04-23 16:40 | 60.30783 | 24.93409 | 160 ft | 18 kts | 26° |
| 2026-04-23 16:40 | 60.30830 | 24.93411 | 160 ft | 1 kts | 343° |
| 2026-04-23 16:41 | 60.30836 | 24.93408 | 160 ft | 0 kts | 345° |
| 2026-04-23 16:41 | 60.30837 | 24.93407 | 160 ft | 0 kts | 345° |
| 2026-04-23 16:45 | 60.30873 | 24.93370 | 160 ft | 16 kts | 338° |
| 2026-04-23 16:45 | 60.31037 | 24.93440 | 159 ft | 33 kts | 42° |
| 2026-04-23 16:45 | 60.31165 | 24.93731 | 159 ft | 4 kts | 49° |
| 2026-04-23 16:45 | 60.31167 | 24.93734 | 159 ft | 1 kts | 48° |
| 2026-04-23 16:46 | 60.31195 | 24.93798 | 159 ft | 12 kts | 47° |
| 2026-04-23 16:46 | 60.31221 | 24.93851 | 160 ft | 0 kts | 44° |
| 2026-04-23 16:48 | 60.31233 | 24.93874 | 160 ft | 12 kts | 44° |
| 2026-04-23 16:48 | 60.31423 | 24.94258 | 161 ft | 65 kts | 47° |
| 2026-04-23 16:48 | 60.31737 | 24.95064 | 314 ft | 81 kts | 48° |
| 2026-04-23 16:49 | 60.31989 | 24.95701 | 431 ft | 90 kts | 45° |
| 2026-04-23 16:49 | 60.32598 | 24.97091 | 730 ft | 111 kts | 41° |
| 2026-04-23 16:49 | 60.33127 | 24.98305 | 1097 ft | 118 kts | 42° |
| 2026-04-23 16:49 | 60.33661 | 24.99619 | 1496 ft | 123 kts | 42° |
| 2026-04-23 16:50 | 60.34193 | 25.00969 | 1844 ft | 122 kts | 36° |
| 2026-04-23 16:50 | 60.34797 | 25.02140 | 2166 ft | 121 kts | 33° |
| 2026-04-23 16:50 | 60.35400 | 25.03306 | 2472 ft | 119 kts | 33° |
| 2026-04-23 16:50 | 60.35989 | 25.04488 | 2752 ft | 119 kts | 35° |
| 2026-04-23 16:51 | 60.36554 | 25.05702 | 3050 ft | 118 kts | 35° |
| 2026-04-23 16:51 | 60.37117 | 25.06932 | 3332 ft | 119 kts | 36° |
| 2026-04-23 16:51 | 60.37677 | 25.08165 | 3617 ft | 118 kts | 36° |
| 2026-04-23 16:51 | 60.38229 | 25.09385 | 3904 ft | 116 kts | 36° |
| 2026-04-23 16:52 | 60.38771 | 25.10584 | 4191 ft | 115 kts | 36° |
| 2026-04-23 16:52 | 60.39305 | 25.11776 | 4483 ft | 114 kts | 38° |
| 2026-04-23 16:52 | 60.39563 | 25.13386 | 4765 ft | 136 kts | 81° |
| 2026-04-23 16:52 | 60.39207 | 25.15270 | 5056 ft | 147 kts | 105° |
| 2026-04-23 16:53 | 60.38762 | 25.17116 | 5339 ft | 146 kts | 103° |
| 2026-04-23 16:53 | 60.38334 | 25.18953 | 5628 ft | 145 kts | 103° |
| 2026-04-23 16:53 | 60.37902 | 25.20783 | 5938 ft | 142 kts | 104° |
| 2026-04-23 16:53 | 60.37484 | 25.22591 | 6226 ft | 142 kts | 102° |
| 2026-04-23 16:54 | 60.37062 | 25.24400 | 6493 ft | 142 kts | 101° |
| 2026-04-23 16:54 | 60.36646 | 25.26182 | 6762 ft | 142 kts | 101° |
| 2026-04-23 16:54 | 60.36207 | 25.28096 | 6853 ft | 157 kts | 101° |
| 2026-04-23 16:54 | 60.35725 | 25.30156 | 6856 ft | 170 kts | 104° |
| 2026-04-23 16:55 | 60.35198 | 25.32368 | 6858 ft | 178 kts | 104° |
| 2026-04-23 16:55 | 60.34659 | 25.34659 | 6859 ft | 183 kts | 104° |
| 2026-04-23 16:55 | 60.34109 | 25.37001 | 6848 ft | 185 kts | 103° |
| 2026-04-23 16:55 | 60.33806 | 25.39423 | 6848 ft | 175 kts | 86° |
| 2026-04-23 16:56 | 60.33621 | 25.41859 | 6851 ft | 176 kts | 88° |
| 2026-04-23 16:56 | 60.33408 | 25.44306 | 6854 ft | 177 kts | 88° |
| 2026-04-23 16:56 | 60.33267 | 25.45932 | 6853 ft | 177 kts | 88° |
| 2026-04-23 16:56 | 60.32989 | 25.49212 | 6850 ft | 178 kts | 88° |
| 2026-04-23 16:57 | 60.32779 | 25.51666 | 6837 ft | 177 kts | 88° |
| 2026-04-23 16:57 | 60.32568 | 25.54124 | 6847 ft | 178 kts | 88° |
| 2026-04-23 16:57 | 60.32356 | 25.56573 | 6846 ft | 177 kts | 88° |
| 2026-04-23 16:57 | 60.32144 | 25.59022 | 6840 ft | 177 kts | 88° |
| 2026-04-23 16:58 | 60.31936 | 25.61465 | 6845 ft | 177 kts | 88° |
| 2026-04-23 16:58 | 60.31726 | 25.63909 | 6850 ft | 177 kts | 88° |
| 2026-04-23 16:58 | 60.31513 | 25.66359 | 6840 ft | 178 kts | 88° |
| 2026-04-23 16:58 | 60.31299 | 25.68795 | 6848 ft | 179 kts | 88° |
| 2026-04-23 16:59 | 60.31087 | 25.71269 | 6850 ft | 180 kts | 88° |
| 2026-04-23 16:59 | 60.30870 | 25.73756 | 6847 ft | 180 kts | 88° |
| 2026-04-23 16:59 | 60.30654 | 25.76236 | 6846 ft | 181 kts | 88° |
| 2026-04-23 16:59 | 60.30435 | 25.78727 | 6828 ft | 180 kts | 88° |
| 2026-04-23 17:00 | 60.30215 | 25.81216 | 6839 ft | 180 kts | 88° |
| 2026-04-23 17:00 | 60.29996 | 25.83707 | 6838 ft | 180 kts | 88° |
| 2026-04-23 17:00 | 60.29777 | 25.86197 | 6836 ft | 181 kts | 88° |
| 2026-04-23 17:00 | 60.29633 | 25.87853 | 6844 ft | 181 kts | 88° |
| 2026-04-23 17:01 | 60.29410 | 25.90348 | 6828 ft | 180 kts | 88° |
| 2026-04-23 17:01 | 60.29189 | 25.92827 | 6835 ft | 179 kts | 88° |
| 2026-04-23 17:01 | 60.28970 | 25.95297 | 6836 ft | 179 kts | 88° |
| 2026-04-23 17:01 | 60.28750 | 25.97769 | 6830 ft | 180 kts | 88° |
| 2026-04-23 17:02 | 60.28528 | 26.00254 | 6834 ft | 180 kts | 88° |
| 2026-04-23 17:02 | 60.28306 | 26.02742 | 6833 ft | 181 kts | 88° |
| 2026-04-23 17:02 | 60.28083 | 26.05230 | 6828 ft | 180 kts | 88° |
| 2026-04-23 17:02 | 60.27862 | 26.07715 | 6829 ft | 180 kts | 88° |
| 2026-04-23 17:03 | 60.27637 | 26.10193 | 6829 ft | 180 kts | 89° |
| 2026-04-23 17:03 | 60.27416 | 26.12672 | 6827 ft | 180 kts | 88° |
| 2026-04-23 17:03 | 60.27188 | 26.15156 | 6832 ft | 180 kts | 89° |
| 2026-04-23 17:03 | 60.26961 | 26.17631 | 6827 ft | 179 kts | 88° |
| 2026-04-23 17:04 | 60.26737 | 26.20108 | 6832 ft | 179 kts | 88° |
| 2026-04-23 17:04 | 60.26547 | 26.22200 | 6831 ft | 179 kts | 88° |
| 2026-04-23 17:04 | 60.26322 | 26.24664 | 6831 ft | 179 kts | 89° |
| 2026-04-23 17:04 | 60.26100 | 26.27100 | 6827 ft | 179 kts | 89° |
| 2026-04-23 17:05 | 60.25873 | 26.29571 | 6833 ft | 180 kts | 89° |
| 2026-04-23 17:05 | 60.25646 | 26.32044 | 6831 ft | 179 kts | 89° |
| 2026-04-23 17:05 | 60.25418 | 26.34514 | 6832 ft | 179 kts | 89° |
| 2026-04-23 17:05 | 60.25190 | 26.36987 | 6826 ft | 179 kts | 89° |
| 2026-04-23 17:06 | 60.24961 | 26.39461 | 6828 ft | 179 kts | 89° |
| 2026-04-23 17:06 | 60.24742 | 26.41916 | 6833 ft | 179 kts | 88° |
| 2026-04-23 17:06 | 60.24537 | 26.44386 | 6832 ft | 179 kts | 88° |
| 2026-04-23 17:06 | 60.24331 | 26.46833 | 6831 ft | 179 kts | 88° |
| 2026-04-23 17:07 | 60.24119 | 26.49310 | 6832 ft | 179 kts | 88° |
| 2026-04-23 17:07 | 60.23908 | 26.51773 | 6832 ft | 179 kts | 88° |
| 2026-04-23 17:07 | 60.23734 | 26.54242 | 6829 ft | 174 kts | 80° |
| 2026-04-23 17:07 | 60.23742 | 26.56667 | 6823 ft | 172 kts | 77° |
| 2026-04-23 17:08 | 60.23748 | 26.59087 | 6826 ft | 173 kts | 78° |
| 2026-04-23 17:08 | 60.23744 | 26.61510 | 6825 ft | 174 kts | 78° |
| 2026-04-23 17:08 | 60.23738 | 26.63943 | 6827 ft | 174 kts | 78° |
| 2026-04-23 17:08 | 60.23733 | 26.66384 | 6826 ft | 174 kts | 78° |
| 2026-04-23 17:09 | 60.23727 | 26.68824 | 6826 ft | 174 kts | 78° |
| 2026-04-23 17:09 | 60.23721 | 26.71267 | 6826 ft | 175 kts | 78° |
| 2026-04-23 17:09 | 60.23714 | 26.73705 | 6824 ft | 174 kts | 79° |
| 2026-04-23 17:09 | 60.23708 | 26.76145 | 6826 ft | 174 kts | 78° |
| 2026-04-23 17:10 | 60.23700 | 26.78587 | 6826 ft | 174 kts | 79° |
| 2026-04-23 17:10 | 60.23693 | 26.81027 | 6825 ft | 174 kts | 79° |
| 2026-04-23 17:10 | 60.23685 | 26.83435 | 6824 ft | 174 kts | 79° |
| 2026-04-23 17:10 | 60.23675 | 26.85871 | 6827 ft | 174 kts | 79° |
| 2026-04-23 17:11 | 60.23667 | 26.88312 | 6827 ft | 174 kts | 79° |
| 2026-04-23 17:11 | 60.23658 | 26.90752 | 6827 ft | 175 kts | 79° |
| 2026-04-23 17:11 | 60.23648 | 26.93197 | 6826 ft | 174 kts | 79° |
| 2026-04-23 17:11 | 60.23636 | 26.95613 | 6822 ft | 172 kts | 79° |
| 2026-04-23 17:12 | 60.23627 | 26.98013 | 6825 ft | 172 kts | 79° |
| 2026-04-23 17:12 | 60.23615 | 27.00418 | 6823 ft | 172 kts | 79° |
| 2026-04-23 17:12 | 60.23604 | 27.02820 | 6821 ft | 172 kts | 79° |
| 2026-04-23 17:12 | 60.23592 | 27.05220 | 6820 ft | 172 kts | 79° |
| 2026-04-23 17:13 | 60.23580 | 27.07632 | 6823 ft | 172 kts | 79° |
| 2026-04-23 17:13 | 60.23567 | 27.10034 | 6825 ft | 172 kts | 79° |
| 2026-04-23 17:13 | 60.23553 | 27.12439 | 6826 ft | 171 kts | 79° |
| 2026-04-23 17:13 | 60.23540 | 27.14835 | 6825 ft | 171 kts | 79° |
| 2026-04-23 17:14 | 60.23526 | 27.17233 | 6825 ft | 171 kts | 79° |
| 2026-04-23 17:14 | 60.23511 | 27.19629 | 6823 ft | 171 kts | 79° |
| 2026-04-23 17:14 | 60.23496 | 27.22023 | 6825 ft | 171 kts | 79° |
| 2026-04-23 17:14 | 60.23481 | 27.24423 | 6825 ft | 171 kts | 79° |
| 2026-04-23 17:15 | 60.23464 | 27.26822 | 6825 ft | 171 kts | 79° |
| 2026-04-23 17:15 | 60.23448 | 27.29217 | 6823 ft | 171 kts | 79° |
| 2026-04-23 17:15 | 60.23432 | 27.31613 | 6820 ft | 171 kts | 79° |
| 2026-04-23 17:15 | 60.23415 | 27.34009 | 6821 ft | 171 kts | 79° |
| 2026-04-23 17:16 | 60.23397 | 27.36375 | 6825 ft | 171 kts | 79° |
| 2026-04-23 17:16 | 60.23379 | 27.38772 | 6825 ft | 171 kts | 79° |
| 2026-04-23 17:16 | 60.23361 | 27.41165 | 6823 ft | 171 kts | 80° |
| 2026-04-23 17:16 | 60.23342 | 27.43563 | 6824 ft | 171 kts | 80° |
| 2026-04-23 17:17 | 60.23323 | 27.45961 | 6821 ft | 171 kts | 80° |
| 2026-04-23 17:17 | 60.23279 | 27.48365 | 6822 ft | 174 kts | 84° |
| 2026-04-23 17:17 | 60.23181 | 27.50787 | 6825 ft | 173 kts | 83° |
| 2026-04-23 17:17 | 60.23100 | 27.53203 | 6823 ft | 173 kts | 83° |
| 2026-04-23 17:18 | 60.22927 | 27.58037 | 6820 ft | 173 kts | 83° |
| 2026-04-23 17:18 | 60.22838 | 27.60454 | 6820 ft | 173 kts | 83° |
| 2026-04-23 17:18 | 60.22748 | 27.62868 | 6822 ft | 173 kts | 83° |
| 2026-04-23 17:19 | 60.22660 | 27.65249 | 6819 ft | 173 kts | 84° |
| 2026-04-23 17:19 | 60.22570 | 27.67659 | 6818 ft | 173 kts | 84° |
| 2026-04-23 17:19 | 60.22479 | 27.70070 | 6821 ft | 173 kts | 84° |
| 2026-04-23 17:19 | 60.22388 | 27.72480 | 6822 ft | 173 kts | 84° |
| 2026-04-23 17:20 | 60.22297 | 27.74890 | 6821 ft | 173 kts | 84° |
| 2026-04-23 17:20 | 60.22113 | 27.79718 | 6822 ft | 173 kts | 84° |
| 2026-04-23 17:21 | 60.21926 | 27.84542 | 6819 ft | 173 kts | 84° |
| 2026-04-23 17:21 | 60.21832 | 27.86958 | 6820 ft | 173 kts | 84° |
| 2026-04-23 17:21 | 60.21644 | 27.91780 | 6819 ft | 173 kts | 84° |
| 2026-04-23 17:22 | 60.21549 | 27.94189 | 6819 ft | 173 kts | 84° |
| 2026-04-23 17:22 | 60.21358 | 27.99004 | 6821 ft | 173 kts | 84° |
| 2026-04-23 17:23 | 60.21165 | 28.03827 | 6816 ft | 173 kts | 84° |
| 2026-04-23 17:23 | 60.21068 | 28.06237 | 6816 ft | 173 kts | 84° |
| 2026-04-23 17:23 | 60.20872 | 28.11065 | 6815 ft | 173 kts | 84° |
| 2026-04-23 17:24 | 60.20775 | 28.13440 | 6813 ft | 173 kts | 84° |
| 2026-04-23 17:24 | 60.20676 | 28.15850 | 6814 ft | 173 kts | 84° |
| 2026-04-23 17:24 | 60.20477 | 28.20659 | 6816 ft | 173 kts | 85° |
| 2026-04-23 17:25 | 60.20275 | 28.25514 | 6815 ft | 175 kts | 85° |
| 2026-04-23 17:25 | 60.20172 | 28.27953 | 6815 ft | 175 kts | 85° |
| 2026-04-23 17:26 | 60.19966 | 28.32806 | 6816 ft | 174 kts | 86° |
| 2026-04-23 17:26 | 60.19272 | 28.37618 | 6811 ft | 180 kts | 99° |
| 2026-04-23 17:27 | 60.18842 | 28.42477 | 6810 ft | 176 kts | 89° |
| 2026-04-23 17:27 | 60.18656 | 28.44909 | 6810 ft | 176 kts | 89° |
| 2026-04-23 17:27 | 60.18469 | 28.47330 | 6808 ft | 172 kts | 89° |
| 2026-04-23 17:27 | 60.18284 | 28.49646 | 6798 ft | 165 kts | 89° |
| 2026-04-23 17:28 | 60.18102 | 28.51886 | 6797 ft | 160 kts | 89° |
| 2026-04-23 17:28 | 60.17924 | 28.54055 | 6797 ft | 158 kts | 89° |
| 2026-04-23 17:28 | 60.17743 | 28.56229 | 6795 ft | 157 kts | 89° |
| 2026-04-23 17:28 | 60.17709 | 28.58349 | 6790 ft | 143 kts | 61° |
| 2026-04-23 17:29 | 60.18192 | 28.59979 | 6804 ft | 136 kts | 48° |
| 2026-04-23 17:29 | 60.18528 | 28.61821 | 6808 ft | 146 kts | 68° |
| 2026-04-23 17:29 | 60.18396 | 28.66125 | 6672 ft | 163 kts | 91° |
| 2026-04-23 17:30 | 60.18261 | 28.67607 | 6624 ft | 163 kts | 90° |
| 2026-04-23 17:30 | 60.17805 | 28.72872 | 6456 ft | 164 kts | 91° |
| 2026-04-23 17:30 | 60.17608 | 28.75130 | 6380 ft | 164 kts | 91° |
| 2026-04-23 17:31 | 60.17409 | 28.77400 | 6305 ft | 165 kts | 91° |
| 2026-04-23 17:31 | 60.17211 | 28.79661 | 6230 ft | 164 kts | 91° |
| 2026-04-23 17:31 | 60.17012 | 28.81923 | 6150 ft | 164 kts | 91° |
| 2026-04-23 17:31 | 60.16813 | 28.84182 | 6071 ft | 164 kts | 91° |
| 2026-04-23 17:32 | 60.16616 | 28.86411 | 5991 ft | 164 kts | 91° |
| 2026-04-23 17:32 | 60.16416 | 28.88675 | 5910 ft | 165 kts | 91° |
| 2026-04-23 17:32 | 60.16215 | 28.90940 | 5827 ft | 165 kts | 91° |
| 2026-04-23 17:32 | 60.16014 | 28.93202 | 5748 ft | 165 kts | 91° |
| 2026-04-23 17:33 | 60.15813 | 28.95465 | 5667 ft | 164 kts | 91° |
| 2026-04-23 17:33 | 60.15611 | 28.97723 | 5588 ft | 165 kts | 91° |
| 2026-04-23 17:33 | 60.15409 | 28.99987 | 5508 ft | 165 kts | 91° |
| 2026-04-23 17:33 | 60.15207 | 29.02247 | 5427 ft | 165 kts | 91° |
| 2026-04-23 17:34 | 60.15004 | 29.04508 | 5348 ft | 164 kts | 91° |
| 2026-04-23 17:34 | 60.14800 | 29.06770 | 5268 ft | 164 kts | 91° |
| 2026-04-23 17:34 | 60.14393 | 29.11288 | 5113 ft | 164 kts | 92° |
| 2026-04-23 17:35 | 60.14189 | 29.13544 | 5027 ft | 164 kts | 92° |
| 2026-04-23 17:35 | 60.13852 | 29.17248 | 4999 ft | 160 kts | 91° |
| 2026-04-23 17:35 | 60.13588 | 29.20164 | 4993 ft | 158 kts | 91° |
| 2026-04-23 17:36 | 60.13392 | 29.22324 | 4989 ft | 157 kts | 91° |
| 2026-04-23 17:36 | 60.13195 | 29.24481 | 4989 ft | 157 kts | 92° |
| 2026-04-23 17:36 | 60.12997 | 29.26639 | 4993 ft | 157 kts | 92° |
| 2026-04-23 17:36 | 60.12799 | 29.28796 | 4995 ft | 157 kts | 92° |
| 2026-04-23 17:37 | 60.12605 | 29.30923 | 4990 ft | 157 kts | 92° |
| 2026-04-23 17:37 | 60.12407 | 29.33072 | 4991 ft | 157 kts | 92° |
| 2026-04-23 17:37 | 60.12012 | 29.37361 | 4990 ft | 156 kts | 92° |
| 2026-04-23 17:38 | 60.11815 | 29.39493 | 4989 ft | 156 kts | 92° |
| 2026-04-23 17:38 | 60.11618 | 29.41627 | 4990 ft | 155 kts | 92° |
| 2026-04-23 17:38 | 60.11421 | 29.43753 | 4989 ft | 155 kts | 92° |
| 2026-04-23 17:38 | 60.11222 | 29.45889 | 4991 ft | 155 kts | 92° |
| 2026-04-23 17:39 | 60.11027 | 29.47993 | 4989 ft | 156 kts | 92° |
| 2026-04-23 17:39 | 60.10824 | 29.50171 | 4867 ft | 162 kts | 93° |
| 2026-04-23 17:39 | 60.10614 | 29.52407 | 4782 ft | 163 kts | 93° |
| 2026-04-23 17:39 | 60.10407 | 29.54606 | 4780 ft | 159 kts | 93° |
| 2026-04-23 17:40 | 60.10204 | 29.56774 | 4778 ft | 158 kts | 93° |
| 2026-04-23 17:40 | 60.10002 | 29.58939 | 4756 ft | 158 kts | 93° |
| 2026-04-23 17:40 | 60.09800 | 29.61082 | 4780 ft | 155 kts | 93° |
| 2026-04-23 17:40 | 60.09600 | 29.63202 | 4781 ft | 155 kts | 93° |
| 2026-04-23 17:41 | 60.09404 | 29.65277 | 4909 ft | 148 kts | 92° |
| 2026-04-23 17:41 | 60.09007 | 29.69492 | 4772 ft | 161 kts | 94° |
| 2026-04-23 17:41 | 60.08796 | 29.71681 | 4769 ft | 158 kts | 94° |
| 2026-04-23 17:42 | 60.08388 | 29.75972 | 4778 ft | 156 kts | 93° |
| 2026-04-23 17:42 | 60.08185 | 29.78108 | 4778 ft | 156 kts | 94° |
| 2026-04-23 17:42 | 60.07984 | 29.80205 | 4778 ft | 155 kts | 94° |
| 2026-04-23 17:43 | 60.07777 | 29.82361 | 4776 ft | 156 kts | 94° |
| 2026-04-23 17:43 | 60.07576 | 29.84463 | 4778 ft | 156 kts | 94° |
| 2026-04-23 17:43 | 60.07370 | 29.86590 | 4782 ft | 156 kts | 94° |
| 2026-04-23 17:43 | 60.07166 | 29.88718 | 4782 ft | 156 kts | 94° |
| 2026-04-23 17:44 | 60.06961 | 29.90840 | 4783 ft | 156 kts | 94° |
| 2026-04-23 17:44 | 60.06755 | 29.92970 | 4785 ft | 155 kts | 94° |
| 2026-04-23 17:44 | 60.06342 | 29.97224 | 4784 ft | 156 kts | 94° |
| 2026-04-23 17:45 | 60.06134 | 29.99361 | 4789 ft | 156 kts | 94° |
| 2026-04-23 17:45 | 60.05713 | 30.03674 | 4788 ft | 157 kts | 94° |
| 2026-04-23 17:45 | 60.05444 | 30.05854 | 4642 ft | 166 kts | 102° |
| 2026-04-23 17:46 | 60.04844 | 30.09571 | 4387 ft | 171 kts | 102° |
| 2026-04-23 17:46 | 60.04435 | 30.11805 | 4224 ft | 174 kts | 114° |
| 2026-04-23 17:46 | 60.03691 | 30.13744 | 4072 ft | 177 kts | 127° |
| 2026-04-23 17:47 | 60.02918 | 30.15656 | 3913 ft | 177 kts | 123° |
| 2026-04-23 17:47 | 60.02192 | 30.17627 | 3756 ft | 176 kts | 122° |
| 2026-04-23 17:47 | 60.00737 | 30.21574 | 3468 ft | 177 kts | 122° |
| 2026-04-23 17:48 | 60.00013 | 30.23516 | 3468 ft | 172 kts | 122° |
| 2026-04-23 17:48 | 59.99307 | 30.25426 | 3465 ft | 169 kts | 122° |
| 2026-04-23 17:48 | 59.98616 | 30.27303 | 3457 ft | 166 kts | 122° |
| 2026-04-23 17:48 | 59.97926 | 30.29146 | 3452 ft | 165 kts | 122° |
| 2026-04-23 17:49 | 59.97249 | 30.30978 | 3461 ft | 164 kts | 122° |
| 2026-04-23 17:49 | 59.96563 | 30.32815 | 3460 ft | 164 kts | 121° |
| 2026-04-23 17:49 | 59.95886 | 30.34653 | 3463 ft | 165 kts | 122° |
| 2026-04-23 17:49 | 59.95215 | 30.36468 | 3456 ft | 164 kts | 122° |
| 2026-04-23 17:50 | 59.94537 | 30.38284 | 3468 ft | 164 kts | 122° |
| 2026-04-23 17:50 | 59.93168 | 30.41948 | 3461 ft | 164 kts | 122° |
| 2026-04-23 17:50 | 59.92490 | 30.43772 | 3460 ft | 163 kts | 122° |
| 2026-04-23 17:51 | 59.91813 | 30.45597 | 3461 ft | 164 kts | 121° |
| 2026-04-23 17:51 | 59.91132 | 30.47411 | 3466 ft | 163 kts | 121° |
| 2026-04-23 17:51 | 59.89769 | 30.51047 | 3466 ft | 165 kts | 122° |
| 2026-04-23 17:52 | 59.89081 | 30.52885 | 3465 ft | 166 kts | 122° |
| 2026-04-23 17:52 | 59.87682 | 30.56427 | 3405 ft | 165 kts | 125° |
| 2026-04-23 17:52 | 59.86942 | 30.58206 | 3275 ft | 169 kts | 125° |
| 2026-04-23 17:53 | 59.85435 | 30.61824 | 3018 ft | 171 kts | 125° |
| 2026-04-23 17:53 | 59.84681 | 30.63655 | 2885 ft | 171 kts | 125° |
| 2026-04-23 17:53 | 59.83929 | 30.65494 | 2743 ft | 171 kts | 122° |
| 2026-04-23 17:54 | 59.83434 | 30.67578 | 2610 ft | 166 kts | 107° |
| 2026-04-23 17:54 | 59.82834 | 30.69568 | 2478 ft | 170 kts | 122° |
| 2026-04-23 17:54 | 59.80924 | 30.72048 | 2461 ft | 171 kts | 173° |
| 2026-04-23 17:55 | 59.78787 | 30.70657 | 2459 ft | 159 kts | 229° |
| 2026-04-23 17:55 | 59.78163 | 30.68901 | 2484 ft | 152 kts | 250° |
| 2026-04-23 17:55 | 59.77677 | 30.67046 | 2504 ft | 151 kts | 248° |
| 2026-04-23 17:56 | 59.77170 | 30.65205 | 2510 ft | 152 kts | 248° |
| 2026-04-23 17:56 | 59.76217 | 30.61388 | 2506 ft | 153 kts | 250° |
| 2026-04-23 17:56 | 59.75787 | 30.59447 | 2500 ft | 153 kts | 254° |
| 2026-04-23 17:57 | 59.75396 | 30.57468 | 2505 ft | 156 kts | 256° |
| 2026-04-23 17:57 | 59.75088 | 30.55420 | 2499 ft | 152 kts | 273° |
| 2026-04-23 17:57 | 59.75590 | 30.51539 | 2496 ft | 145 kts | 292° |
| 2026-04-23 17:58 | 59.75867 | 30.49642 | 2456 ft | 144 kts | 292° |
| 2026-04-23 17:58 | 59.76155 | 30.47715 | 2280 ft | 153 kts | 293° |
| 2026-04-23 17:58 | 59.76464 | 30.45632 | 2053 ft | 159 kts | 290° |
| 2026-04-23 17:58 | 59.76776 | 30.43526 | 1840 ft | 159 kts | 291° |
| 2026-04-23 17:59 | 59.77067 | 30.41503 | 1598 ft | 140 kts | 291° |
| 2026-04-23 17:59 | 59.77313 | 30.39809 | 1387 ft | 118 kts | 292° |
| 2026-04-23 17:59 | 59.77520 | 30.38401 | 1254 ft | 97 kts | 293° |
| 2026-04-23 17:59 | 59.77700 | 30.37183 | 1108 ft | 88 kts | 293° |
| 2026-04-23 18:00 | 59.77878 | 30.36013 | 934 ft | 88 kts | 291° |
| 2026-04-23 18:00 | 59.78039 | 30.34928 | 849 ft | 77 kts | 291° |
| 2026-04-23 18:00 | 59.78184 | 30.33951 | 723 ft | 70 kts | 292° |
| 2026-04-23 18:00 | 59.78310 | 30.33084 | 628 ft | 59 kts | 293° |
| 2026-04-23 18:01 | 59.78430 | 30.32332 | 537 ft | 58 kts | 285° |
| 2026-04-23 18:01 | 59.78546 | 30.31517 | 520 ft | 68 kts | 295° |
| 2026-04-23 18:01 | 59.78685 | 30.30542 | 418 ft | 74 kts | 287° |
| 2026-04-23 18:01 | 59.78804 | 30.29639 | 308 ft | 65 kts | 288° |
| 2026-04-23 18:02 | 59.78944 | 30.28784 | 187 ft | 65 kts | 292° |
| 2026-04-23 18:02 | 59.79073 | 30.27966 | 105 ft | 59 kts | 291° |
| 2026-04-23 18:02 | 59.79183 | 30.27291 | 89 ft | 38 kts | 285° |
| 2026-04-23 18:02 | 59.79238 | 30.26925 | 90 ft | 19 kts | 290° |
| 2026-04-23 18:03 | 59.79265 | 30.26754 | 83 ft | 9 kts | 283° |
| 2026-04-23 18:03 | 59.79278 | 30.26649 | 82 ft | 8 kts | 288° |
| 2026-04-23 18:03 | 59.79303 | 30.26483 | 83 ft | 18 kts | 295° |
| 2026-04-23 18:03 | 59.79405 | 30.26389 | 82 ft | 14 kts | 13° |
| 2026-04-23 18:04 | 59.79461 | 30.26423 | 83 ft | 0 kts | 17° |
| 2026-04-23 18:06 | 59.79464 | 30.26424 | 83 ft | 3 kts | 1° |
| 2026-04-23 18:06 | 59.79504 | 30.26336 | 84 ft | 16 kts | 284° |
| 2026-04-23 18:06 | 59.79561 | 30.26098 | 82 ft | 18 kts | 320° |
| 2026-04-23 18:06 | 59.79649 | 30.26051 | 83 ft | 10 kts | 8° |
| 2026-04-23 18:07 | 59.79705 | 30.26083 | 81 ft | 9 kts | 17° |
| 2026-04-23 18:07 | 59.79796 | 30.26133 | 81 ft | 19 kts | 13° |
| 2026-04-23 18:07 | 59.79964 | 30.26216 | 74 ft | 31 kts | 8° |
| 2026-04-23 18:07 | 59.80167 | 30.26349 | 73 ft | 27 kts | 17° |
| 2026-04-23 18:08 | 59.80278 | 30.26409 | 72 ft | 22 kts | 14° |
| 2026-04-23 18:08 | 59.80401 | 30.26575 | 69 ft | 13 kts | 71° |
| 2026-04-23 18:08 | 59.80406 | 30.26731 | 71 ft | 11 kts | 91° |
| 2026-04-23 18:08 | 59.80390 | 30.26924 | 71 ft | 18 kts | 105° |
| 2026-04-23 18:09 | 59.80354 | 30.27173 | 69 ft | 17 kts | 109° |
| 2026-04-23 18:09 | 59.80287 | 30.27222 | 68 ft | 8 kts | 149° |
| 2026-04-23 18:09 | 59.80266 | 30.27304 | 71 ft | 6 kts | 107° |
| 2026-04-23 18:09 | 59.80238 | 30.27408 | 70 ft | 8 kts | 163° |
| 2026-04-23 18:10 | 59.80216 | 30.27403 | 72 ft | 0 kts | 198° |
| 2026-04-23 18:10 | 59.80203 | 30.27386 | 72 ft | 6 kts | 219° |
| 2026-04-23 18:10 | 59.80198 | 30.27394 | 66 ft | 0 kts | 63° |